createdAt,value
2022-12-15T00:02:36.122Z,-7.70
2022-12-15T00:05:22.223Z,-7.60
2022-12-15T00:08:07.663Z,-7.40
2022-12-15T00:10:53.684Z,-7.40
2022-12-15T00:13:38.982Z,-7.40
2022-12-15T00:16:25.156Z,-7.40
2022-12-15T00:19:11.187Z,-7.40
2022-12-15T00:21:56.484Z,-7.50
2022-12-15T00:24:41.856Z,-7.70
2022-12-15T00:27:27.452Z,-7.70
2022-12-15T00:30:12.747Z,-7.50
2022-12-15T00:32:58.005Z,-7.50
2022-12-15T00:35:43.586Z,-7.60
2022-12-15T00:38:31.502Z,-7.70
2022-12-15T00:41:01.353Z,-7.70
2022-12-15T00:43:30.690Z,-7.70
2022-12-15T00:46:16.791Z,-7.70
2022-12-15T00:48:44.063Z,-7.50
2022-12-15T00:51:11.245Z,-7.50
2022-12-15T00:53:57.367Z,-7.60
2022-12-15T00:56:43.539Z,-7.70
2022-12-15T00:59:29.419Z,-7.80
2022-12-15T01:02:14.968Z,-7.70
2022-12-15T01:05:00.347Z,-7.40
2022-12-15T01:07:49.387Z,-7.20
2022-12-15T01:10:37.002Z,-7.30
2022-12-15T01:13:23.610Z,-7.50
2022-12-15T01:16:09.166Z,-7.60
2022-12-15T01:18:55.146Z,-7.50
2022-12-15T01:21:24.977Z,-7.50
2022-12-15T01:23:52.601Z,-7.60
2022-12-15T01:26:20.005Z,-7.70
2022-12-15T01:28:46.906Z,-7.70
2022-12-15T01:31:14.473Z,-7.70
2022-12-15T01:33:43.598Z,-7.70
2022-12-15T01:36:11.750Z,-7.70
2022-12-15T01:38:38.719Z,-7.60
2022-12-15T01:41:09.743Z,-7.50
2022-12-15T01:43:39.622Z,-7.60
2022-12-15T01:46:18.959Z,-7.60
2022-12-15T01:48:58.670Z,-7.40
2022-12-15T01:51:26.933Z,-7.30
2022-12-15T01:53:57.577Z,-7.10
2022-12-15T01:56:26.535Z,-7.20
2022-12-15T01:58:57.655Z,-7.30
2022-12-15T02:01:24.776Z,-7.50
2022-12-15T02:03:51.843Z,-7.50
2022-12-15T02:06:22.393Z,-7.50
2022-12-15T02:08:52.504Z,-7.50
2022-12-15T02:11:46.016Z,-7.50
2022-12-15T02:14:41.480Z,-7.40
2022-12-15T02:17:31.733Z,-7.50
2022-12-15T02:20:08.741Z,-7.50
2022-12-15T02:22:51.834Z,-7.10
2022-12-15T02:25:42.666Z,-6.70
2022-12-15T02:28:32.137Z,-6.40
2022-12-15T02:31:30.538Z,-6.10
2022-12-15T02:34:06.273Z,-5.80
2022-12-15T02:36:37.379Z,-5.60
2022-12-15T02:39:05.357Z,-5.50
2022-12-15T02:41:42.792Z,-5.50
2022-12-15T02:44:12.308Z,-5.50
2022-12-15T02:47:07.077Z,-5.40
2022-12-15T02:50:00.638Z,-5.20
2022-12-15T02:52:45.853Z,-5.00
2022-12-15T02:55:40.767Z,-4.90
2022-12-15T02:58:19.502Z,-4.80
2022-12-15T03:00:59.842Z,-4.80
2022-12-15T03:03:29.820Z,-4.90
2022-12-15T03:05:57.750Z,-5.00
2022-12-15T03:08:24.755Z,-5.10
2022-12-15T03:10:54.448Z,-5.20
2022-12-15T03:13:23.011Z,-5.30
2022-12-15T03:15:50.243Z,-5.30
2022-12-15T03:18:17.213Z,-5.30
2022-12-15T03:20:44.150Z,-5.30
2022-12-15T03:23:11.151Z,-5.40
2022-12-15T03:25:38.032Z,-5.50
2022-12-15T03:28:05.158Z,-5.40
2022-12-15T03:30:32.120Z,-5.30
2022-12-15T03:32:59.018Z,-5.30
2022-12-15T03:35:25.958Z,-5.30
2022-12-15T03:37:52.797Z,-5.40
2022-12-15T03:40:19.675Z,-5.20
2022-12-15T03:42:49.298Z,-5.10
2022-12-15T03:45:24.729Z,-5.10
2022-12-15T03:47:52.988Z,-5.10
2022-12-15T03:50:25.587Z,-5.10
2022-12-15T03:52:55.241Z,-5.10
2022-12-15T03:55:22.730Z,-5.10
2022-12-15T03:57:50.081Z,-5.10
2022-12-15T04:00:18.655Z,-5.10
2022-12-15T04:02:46.843Z,-5.10
2022-12-15T04:05:31.985Z,-5.10
2022-12-15T04:08:00.555Z,-5.20
2022-12-15T04:10:34.499Z,-5.20
2022-12-15T04:13:07.448Z,-5.20
2022-12-15T04:15:36.415Z,-5.20
2022-12-15T04:18:07.755Z,-5.20
2022-12-15T04:20:34.649Z,-5.20
2022-12-15T04:23:01.782Z,-5.30
2022-12-15T04:25:47.179Z,-5.30
2022-12-15T04:28:33.058Z,-5.40
2022-12-15T04:31:28.873Z,-5.50
2022-12-15T04:34:21.009Z,-5.50
2022-12-15T04:37:09.477Z,-5.50
2022-12-15T04:39:56.991Z,-5.80
2022-12-15T04:42:43.017Z,-5.80
2022-12-15T04:45:30.501Z,-5.60
2022-12-15T04:48:15.904Z,-5.50
2022-12-15T04:51:01.276Z,-5.60
2022-12-15T04:53:46.901Z,-5.60
2022-12-15T04:56:33.907Z,-5.60
2022-12-15T04:59:19.751Z,-5.70
2022-12-15T05:02:05.411Z,-5.70
2022-12-15T05:04:51.139Z,-5.80
2022-12-15T05:07:36.998Z,-5.90
2022-12-15T05:10:23.551Z,-5.90
2022-12-15T05:13:08.890Z,-5.80
2022-12-15T05:15:54.499Z,-5.90
2022-12-15T05:18:40.528Z,-6.00
2022-12-15T05:21:26.286Z,-6.20
2022-12-15T05:24:11.700Z,-6.30
2022-12-15T05:26:57.106Z,-6.20
2022-12-15T05:29:42.416Z,-6.10
2022-12-15T05:32:09.406Z,-6.00
2022-12-15T05:34:37.742Z,-6.10
2022-12-15T05:37:07.327Z,-6.30
2022-12-15T05:39:34.427Z,-6.50
2022-12-15T05:42:01.620Z,-6.60
2022-12-15T05:44:28.993Z,-6.70
2022-12-15T05:46:56.026Z,-6.80
2022-12-15T05:49:23.347Z,-6.80
2022-12-15T05:51:50.665Z,-6.90
2022-12-15T05:54:19.468Z,-7.00
2022-12-15T05:56:47.168Z,-7.00
2022-12-15T05:59:17.820Z,-7.00
2022-12-15T06:01:44.920Z,-7.10
2022-12-15T06:04:12.972Z,-7.10
2022-12-15T06:06:41.117Z,-7.10
2022-12-15T06:09:08.893Z,-7.00
2022-12-15T06:11:37.447Z,-6.90
2022-12-15T06:14:04.737Z,-6.60
2022-12-15T06:16:32.255Z,-6.40
2022-12-15T06:19:01.542Z,-6.20
2022-12-15T06:21:35.368Z,-6.20
2022-12-15T06:24:08.128Z,-6.20
2022-12-15T06:26:39.749Z,-6.40
2022-12-15T06:29:10.259Z,-6.60
2022-12-15T06:31:38.004Z,-6.70
2022-12-15T06:34:07.785Z,-6.80
2022-12-15T06:36:35.244Z,-6.90
2022-12-15T06:39:04.487Z,-7.10
2022-12-15T06:41:31.727Z,-7.10
2022-12-15T06:44:00.708Z,-7.20
2022-12-15T06:46:29.751Z,-7.30
2022-12-15T06:48:57.161Z,-7.30
2022-12-15T06:51:24.639Z,-7.10
2022-12-15T06:53:55.255Z,-6.80
2022-12-15T06:56:32.574Z,-6.60
2022-12-15T06:59:01.819Z,-6.50
2022-12-15T07:01:29.733Z,-6.40
2022-12-15T07:03:59.949Z,-6.40
2022-12-15T07:06:28.513Z,-6.50
2022-12-15T07:08:56.733Z,-6.70
2022-12-15T07:11:23.926Z,-6.90
2022-12-15T07:13:52.219Z,-7.00
2022-12-15T07:16:21.067Z,-6.90
2022-12-15T07:18:48.169Z,-6.80
2022-12-15T07:21:15.326Z,-6.80
2022-12-15T07:23:58.080Z,-6.80
2022-12-15T07:26:25.952Z,-6.90
2022-12-15T07:28:53.576Z,-7.00
2022-12-15T07:31:21.508Z,-7.10
2022-12-15T07:33:48.732Z,-7.20
2022-12-15T07:36:16.219Z,-7.20
2022-12-15T07:38:50.072Z,-7.20
2022-12-15T07:41:18.912Z,-7.20
2022-12-15T07:43:47.097Z,-7.20
2022-12-15T07:46:14.232Z,-7.20
2022-12-15T07:48:41.401Z,-7.20
2022-12-15T07:51:17.164Z,-7.00
2022-12-15T07:53:47.108Z,-7.00
2022-12-15T07:56:14.040Z,-7.00
2022-12-15T07:58:42.016Z,-7.00
2022-12-15T08:01:12.438Z,-7.10
2022-12-15T08:03:40.655Z,-7.00
2022-12-15T08:06:13.164Z,-6.90
2022-12-15T08:08:40.654Z,-6.90
2022-12-15T08:11:09.563Z,-6.80
2022-12-15T08:16:24.468Z,-6.70
2022-12-15T08:18:51.322Z,-6.60
2022-12-15T08:21:18.272Z,-6.50
2022-12-15T08:23:45.759Z,-6.50
2022-12-15T08:26:15.924Z,-6.40
2022-12-15T08:28:43.805Z,-6.30
2022-12-15T08:31:13.527Z,-6.30
2022-12-15T08:33:40.639Z,-6.20
2022-12-15T08:36:10.559Z,-6.20
2022-12-15T08:38:39.288Z,-6.00
2022-12-15T08:41:13.722Z,-5.90
2022-12-15T08:43:47.592Z,-5.80
2022-12-15T08:46:23.433Z,-5.70
2022-12-15T08:48:51.140Z,-5.60
2022-12-15T08:51:18.128Z,-5.70
2022-12-15T08:53:46.105Z,-5.60
2022-12-15T08:56:16.273Z,-5.50
2022-12-15T08:58:44.584Z,-5.20
2022-12-15T09:01:24.097Z,-4.90
2022-12-15T09:03:55.806Z,-4.90
2022-12-15T09:06:34.740Z,-4.90
2022-12-15T09:09:05.483Z,-4.80
2022-12-15T09:11:33.059Z,-4.60
2022-12-15T09:14:00.363Z,-4.20
2022-12-15T09:16:28.036Z,-3.80
2022-12-15T09:18:57.300Z,-0.30
2022-12-15T09:21:26.822Z,3.90
2022-12-15T09:23:56.187Z,6.60
2022-12-15T09:26:24.001Z,6.80
2022-12-15T09:28:51.455Z,7.20
2022-12-15T09:31:21.913Z,8.70
2022-12-15T09:33:50.826Z,9.90
2022-12-15T09:36:17.867Z,9.50
2022-12-15T09:38:44.997Z,9.60
2022-12-15T09:41:15.041Z,9.00
2022-12-15T09:43:54.532Z,9.50
2022-12-15T09:46:36.841Z,10.60
2022-12-15T09:49:13.469Z,10.80
2022-12-15T09:51:50.777Z,11.40
2022-12-15T09:54:17.961Z,11.70
2022-12-15T09:56:51.823Z,10.20
2022-12-15T09:59:43.387Z,10.60
2022-12-15T10:02:16.174Z,10.10
2022-12-15T10:05:05.782Z,10.80
2022-12-15T10:07:42.034Z,10.90
2022-12-15T10:10:39.014Z,12.10
2022-12-15T10:13:14.713Z,11.20
2022-12-15T10:15:51.339Z,11.10
2022-12-15T10:18:23.625Z,11.40
2022-12-15T10:20:54.185Z,11.90
2022-12-15T10:23:21.640Z,11.20
2022-12-15T10:28:59.970Z,10.20
2022-12-15T10:31:35.813Z,11.60
2022-12-15T10:34:11.471Z,11.70
2022-12-15T10:36:44.461Z,11.20
2022-12-15T10:39:14.446Z,10.30
2022-12-15T10:41:43.974Z,10.60
2022-12-15T10:44:31.851Z,10.40
2022-12-15T10:47:08.720Z,11.10
2022-12-15T10:49:35.602Z,11.90
2022-12-15T10:52:02.702Z,10.70
2022-12-15T10:54:36.893Z,10.80
2022-12-15T10:57:31.631Z,11.40
2022-12-15T11:00:13.811Z,12.00
2022-12-15T11:02:42.160Z,12.70
2022-12-15T11:05:17.910Z,12.00
2022-12-15T11:07:48.948Z,12.20
2022-12-15T11:10:26.429Z,11.70
2022-12-15T11:13:16.292Z,11.40
2022-12-15T11:15:50.579Z,11.10
2022-12-15T11:18:37.281Z,11.00
2022-12-15T11:21:24.178Z,10.80
2022-12-15T11:24:13.752Z,12.50
2022-12-15T11:26:58.653Z,14.10
2022-12-15T11:30:07.738Z,14.60
2022-12-15T11:32:37.459Z,14.00
2022-12-15T11:35:06.536Z,13.80
2022-12-15T11:37:58.344Z,13.20
2022-12-15T11:40:39.991Z,13.00
2022-12-15T11:43:18.867Z,12.90
2022-12-15T11:46:09.804Z,12.50
2022-12-15T11:48:49.006Z,12.20
2022-12-15T11:51:40.585Z,11.40
2022-12-15T11:54:29.756Z,11.80
2022-12-15T11:57:21.085Z,11.90
2022-12-15T12:00:23.188Z,12.50
2022-12-15T12:03:12.459Z,12.50
2022-12-15T12:05:48.762Z,12.40
2022-12-15T12:08:38.033Z,11.90
2022-12-15T12:11:44.755Z,11.40
2022-12-15T12:14:27.690Z,11.50
2022-12-15T12:17:06.226Z,11.10
2022-12-15T12:19:56.448Z,11.30
2022-12-15T12:22:31.846Z,11.90
2022-12-15T12:25:06.891Z,12.10
2022-12-15T12:27:50.328Z,11.90
2022-12-15T12:30:23.398Z,11.00
2022-12-15T12:33:12.473Z,9.70
2022-12-15T12:35:43.040Z,9.60
2022-12-15T12:38:12.182Z,9.20
2022-12-15T12:40:42.079Z,8.70
2022-12-15T12:43:14.177Z,8.60
2022-12-15T12:45:44.344Z,8.00
2022-12-15T12:48:25.751Z,8.00
2022-12-15T12:51:08.173Z,8.10
2022-12-15T12:53:35.541Z,8.50
2022-12-15T12:56:02.766Z,8.80
2022-12-15T12:58:34.817Z,8.70
2022-12-15T13:01:10.991Z,8.80
2022-12-15T13:03:42.509Z,8.50
2022-12-15T13:06:34.213Z,8.10
2022-12-15T13:09:23.084Z,7.70
2022-12-15T13:11:52.773Z,7.50
2022-12-15T13:14:27.116Z,7.00
2022-12-15T13:17:26.933Z,6.70
2022-12-15T13:19:57.337Z,6.60
2022-12-15T13:22:41.837Z,5.80
2022-12-15T13:25:27.316Z,5.50
2022-12-15T13:28:15.978Z,5.10
2022-12-15T13:31:20.886Z,4.60
2022-12-15T13:33:50.702Z,3.80
2022-12-15T13:40:35.452Z,3.50
2022-12-15T13:43:05.477Z,3.50
2022-12-15T13:45:55.096Z,3.30
2022-12-15T13:48:36.084Z,3.10
2022-12-15T13:51:17.887Z,3.10
2022-12-15T13:53:52.909Z,3.00
2022-12-15T13:56:48.946Z,2.80
2022-12-15T13:59:36.138Z,2.70
2022-12-15T14:02:03.123Z,2.60
2022-12-15T14:04:30.100Z,2.40
2022-12-15T14:07:00.781Z,2.30
2022-12-15T14:09:39.803Z,2.20
2022-12-15T14:12:12.454Z,2.10
2022-12-15T14:14:46.689Z,1.90
2022-12-15T14:17:17.949Z,1.80
2022-12-15T14:19:51.202Z,1.80
2022-12-15T14:22:28.222Z,1.70
2022-12-15T14:25:13.333Z,1.60
2022-12-15T14:27:40.555Z,1.50
2022-12-15T14:30:16.303Z,1.40
2022-12-15T14:32:44.995Z,1.30
2022-12-15T14:35:15.665Z,1.30
2022-12-15T14:37:43.703Z,1.20
2022-12-15T14:40:16.965Z,1.20
2022-12-15T14:42:45.180Z,1.10
2022-12-15T14:45:25.555Z,1.00
2022-12-15T14:48:30.399Z,0.90
2022-12-15T14:50:47.713Z,0.80
2022-12-15T14:53:17.700Z,0.70
2022-12-15T14:55:44.737Z,0.60
2022-12-15T14:58:32.774Z,0.50
2022-12-15T15:01:01.393Z,0.40
2022-12-15T15:03:11.382Z,11.10
2022-12-15T15:03:34.451Z,0.30
2022-12-15T15:06:11.052Z,0.20
2022-12-15T15:08:49.052Z,0.10
2022-12-15T15:11:51.535Z,0.00
2022-12-15T15:14:26.739Z,-0.10
2022-12-15T15:17:04.439Z,-0.20
2022-12-15T15:19:37.630Z,-0.30
2022-12-15T15:22:06.319Z,-0.30
2022-12-15T15:24:37.450Z,-0.40
2022-12-15T15:27:25.993Z,-0.40
2022-12-15T15:30:05.964Z,-0.40
2022-12-15T15:32:33.176Z,-0.40
2022-12-15T15:35:00.124Z,-0.60
2022-12-15T15:37:27.035Z,-0.70
2022-12-15T15:39:55.493Z,-0.80
2022-12-15T15:42:26.561Z,-0.90
2022-12-15T15:44:57.884Z,-1.00
2022-12-15T15:47:26.455Z,-1.10
2022-12-15T15:49:58.198Z,-1.30
2022-12-15T15:52:25.415Z,-1.30
2022-12-15T15:54:53.562Z,-1.40
2022-12-15T15:57:20.456Z,-1.40
2022-12-15T15:59:47.839Z,-1.50
2022-12-15T16:02:15.317Z,-1.50
2022-12-15T16:04:43.721Z,-1.60
2022-12-15T16:07:29.084Z,-1.50
2022-12-15T16:09:56.989Z,-1.40
2022-12-15T16:12:29.765Z,-1.40
2022-12-15T16:14:56.700Z,-1.40
2022-12-15T16:17:24.144Z,-1.60
2022-12-15T16:19:51.006Z,-1.60
2022-12-15T16:22:22.275Z,-1.70
2022-12-15T16:24:49.203Z,-1.70
2022-12-15T16:27:16.606Z,-1.70
2022-12-15T16:29:44.551Z,-1.70
2022-12-15T16:32:14.622Z,-1.70
2022-12-15T16:34:42.060Z,-1.80
2022-12-15T16:37:28.246Z,-1.90
2022-12-15T16:39:55.234Z,-2.00
2022-12-15T16:42:22.145Z,-2.00
2022-12-15T16:44:49.105Z,-2.10
2022-12-15T16:47:16.114Z,-2.20
2022-12-15T16:49:43.063Z,-2.30
2022-12-15T16:52:28.245Z,-2.40
2022-12-15T16:54:55.222Z,-2.30
2022-12-15T16:57:22.136Z,-2.20
2022-12-15T16:59:49.870Z,-2.20
2022-12-15T17:02:27.361Z,-2.30
2022-12-15T17:04:55.339Z,-2.40
2022-12-15T17:07:23.656Z,-2.60
2022-12-15T17:09:51.102Z,-2.70
2022-12-15T17:12:18.748Z,-2.80
2022-12-15T17:14:45.999Z,-2.90
2022-12-15T17:17:15.542Z,-2.90
2022-12-15T17:19:57.827Z,-2.90
2022-12-15T17:22:29.846Z,-3.00
2022-12-15T17:24:56.784Z,-3.00
2022-12-15T17:27:28.924Z,-3.20
2022-12-15T17:29:57.897Z,-3.10
2022-12-15T17:32:24.835Z,-3.20
2022-12-15T17:34:51.959Z,-3.20
2022-12-15T17:37:18.974Z,-3.20
2022-12-15T17:39:50.950Z,-3.30
2022-12-15T17:42:19.793Z,-3.30
2022-12-15T17:44:48.340Z,-3.30
2022-12-15T17:47:16.593Z,-3.30
2022-12-15T17:49:44.001Z,-3.40
2022-12-15T17:52:30.559Z,-3.30
2022-12-15T17:54:57.869Z,-3.30
2022-12-15T17:57:25.503Z,-3.20
2022-12-15T17:59:52.809Z,-3.30
2022-12-15T18:02:19.808Z,-3.50
2022-12-15T18:04:47.502Z,-3.60
2022-12-15T18:07:18.390Z,-3.60
2022-12-15T18:09:45.553Z,-3.70
2022-12-15T18:12:24.981Z,-3.70
2022-12-15T18:14:53.115Z,-3.70
2022-12-15T18:17:20.352Z,-3.70
2022-12-15T18:19:47.581Z,-3.80
2022-12-15T18:22:25.564Z,-3.80
2022-12-15T18:24:54.298Z,-3.90
2022-12-15T18:27:29.022Z,-3.90
2022-12-15T18:29:56.957Z,-3.90
2022-12-15T18:32:26.605Z,-3.90
2022-12-15T18:34:54.681Z,-4.00
2022-12-15T18:37:24.769Z,-4.00
2022-12-15T18:39:52.059Z,-4.10
2022-12-15T18:42:20.952Z,-4.10
2022-12-15T18:44:50.333Z,-4.10
2022-12-15T18:47:19.099Z,-4.20
2022-12-15T18:49:46.090Z,-4.10
2022-12-15T18:52:22.332Z,-4.20
2022-12-15T18:54:50.615Z,-4.20
2022-12-15T18:57:32.183Z,-4.30
2022-12-15T19:00:16.493Z,-4.30
2022-12-15T19:02:43.571Z,-4.30
2022-12-15T19:05:30.958Z,-4.30
2022-12-15T19:08:02.624Z,-4.20
2022-12-15T19:10:33.008Z,-4.30
2022-12-15T19:13:00.317Z,-4.40
2022-12-15T19:15:27.388Z,-4.40
2022-12-15T19:18:12.971Z,-4.40
2022-12-15T19:20:58.673Z,-4.50
2022-12-15T19:23:25.783Z,-4.50
2022-12-15T19:25:53.803Z,-4.50
2022-12-15T19:28:23.304Z,-4.50
2022-12-15T19:30:52.094Z,-4.60
2022-12-15T19:33:20.009Z,-4.60
2022-12-15T19:35:50.869Z,-4.70
2022-12-15T19:38:25.402Z,-4.70
2022-12-15T19:40:53.436Z,-4.70
2022-12-15T19:43:22.058Z,-4.60
2022-12-15T19:45:49.879Z,-4.50
2022-12-15T19:48:21.680Z,-4.50
2022-12-15T19:50:51.998Z,-4.60
2022-12-15T19:53:26.334Z,-4.60
2022-12-15T19:55:56.606Z,-4.70
2022-12-15T19:58:29.898Z,-4.90
2022-12-15T20:01:05.613Z,-4.90
2022-12-15T20:03:33.383Z,-4.90
2022-12-15T20:06:02.097Z,-4.90
2022-12-15T20:08:35.503Z,-4.90
2022-12-15T20:11:02.507Z,-5.00
2022-12-15T20:13:30.474Z,-5.00
2022-12-15T20:15:58.188Z,-5.00
2022-12-15T20:18:25.090Z,-5.00
2022-12-15T20:20:52.122Z,-5.10
2022-12-15T20:23:26.388Z,-5.10
2022-12-15T20:25:54.133Z,-5.20
2022-12-15T20:28:27.325Z,-5.30
2022-12-15T20:30:56.241Z,-5.40
2022-12-15T20:33:23.948Z,-5.40
2022-12-15T20:35:51.651Z,-5.30
2022-12-15T20:38:32.225Z,-5.40
2022-12-15T20:41:00.743Z,-5.40
2022-12-15T20:43:33.765Z,-5.50
2022-12-15T20:46:07.751Z,-5.50
2022-12-15T20:48:36.746Z,-5.40
2022-12-15T20:51:09.288Z,-5.50
2022-12-15T20:53:37.942Z,-5.50
2022-12-15T20:56:06.199Z,-5.50
2022-12-15T20:58:40.678Z,-5.50
2022-12-15T21:01:26.363Z,-5.50
2022-12-15T21:03:58.095Z,-5.60
2022-12-15T21:06:26.613Z,-5.60
2022-12-15T21:08:55.143Z,-5.60
2022-12-15T21:11:25.441Z,-5.60
2022-12-15T21:13:54.523Z,-5.70
2022-12-15T21:16:29.209Z,-5.60
2022-12-15T21:19:20.284Z,-5.70
2022-12-15T21:21:48.842Z,-5.70
2022-12-15T21:24:19.117Z,-5.70
2022-12-15T21:26:46.470Z,-5.70
2022-12-15T21:29:15.952Z,-5.70
2022-12-15T21:31:43.509Z,-5.70
2022-12-15T21:34:10.679Z,-5.80
2022-12-15T21:36:39.814Z,-5.90
2022-12-15T21:39:11.611Z,-6.00
2022-12-15T21:41:41.947Z,-6.10
2022-12-15T21:44:14.329Z,-6.10
2022-12-15T21:46:41.545Z,-6.10
2022-12-15T21:49:17.580Z,-6.10
2022-12-15T21:52:12.591Z,-6.00
2022-12-15T21:54:39.409Z,-5.90
2022-12-15T21:57:10.352Z,-6.00
2022-12-15T21:59:37.800Z,-6.10
2022-12-15T22:02:34.308Z,-6.10
2022-12-15T22:05:01.619Z,-6.20
2022-12-15T22:07:28.531Z,-6.20
2022-12-15T22:09:55.499Z,-6.20
2022-12-15T22:12:24.565Z,-6.20
2022-12-15T22:14:52.079Z,-6.20
2022-12-15T22:17:21.899Z,-6.20
2022-12-15T22:19:48.907Z,-6.20
2022-12-15T22:22:16.546Z,-6.30
2022-12-15T22:24:43.894Z,-6.30
2022-12-15T22:27:20.154Z,-6.30
2022-12-15T22:29:48.555Z,-6.30
2022-12-15T22:32:17.225Z,-6.30
2022-12-15T22:34:44.383Z,-6.40
2022-12-15T22:37:11.235Z,-6.40
2022-12-15T22:39:38.200Z,-6.40
2022-12-15T22:42:05.792Z,-6.40
2022-12-15T22:44:37.246Z,-6.50
2022-12-15T22:47:04.841Z,-6.40
2022-12-15T22:49:37.650Z,-6.40
2022-12-15T22:52:17.033Z,-6.50
2022-12-15T22:54:45.993Z,-6.50
2022-12-15T22:57:28.584Z,-6.50
2022-12-15T23:00:02.805Z,-6.50
2022-12-15T23:02:33.766Z,-6.50
2022-12-15T23:05:01.350Z,-6.50
2022-12-15T23:07:28.624Z,-6.60
2022-12-15T23:10:15.855Z,-6.60
2022-12-15T23:12:42.685Z,-6.60
2022-12-15T23:15:28.536Z,-6.60
2022-12-15T23:17:55.422Z,-6.60
2022-12-15T23:20:22.331Z,-6.60
2022-12-15T23:22:49.225Z,-6.60
2022-12-15T23:25:16.216Z,-6.60
2022-12-15T23:27:43.118Z,-6.70
2022-12-15T23:30:12.693Z,-6.60
2022-12-15T23:32:39.700Z,-6.70
2022-12-15T23:35:06.898Z,-6.70
2022-12-15T23:37:34.747Z,-6.80
2022-12-15T23:40:01.617Z,-6.80
2022-12-15T23:42:28.558Z,-6.80
2022-12-15T23:44:55.478Z,-6.70
2022-12-15T23:47:22.410Z,-6.70
2022-12-15T23:49:49.746Z,-6.80
2022-12-15T23:52:20.290Z,-6.80
2022-12-15T23:54:47.232Z,-6.90
2022-12-15T23:57:14.172Z,-7.10
2022-12-15T23:59:41.048Z,-7.10
